Time;durP1;ratioP1;P1;durP2;ratioP2;P2;SDS_P1;SDS_P2;PMS_P1;PMS_P2;Temp;Humidity;BMP_temperature;BMP_pressure;BME280_temperature;BME280_humidity;BME280_pressure;Samples;Min_cycle;Max_cycle;Signal;HPM_P1;HPM_P2
2022/10/10 00:01:06;;;;;;;35.83;18.65;;;;;;;13.38;72.91;101207.78;4992311;28;20034;-70
2022/10/10 00:03:32;;;;;;;33.58;17.38;;;;;;;13.51;72.09;101203.03;4990911;28;20027;-70
2022/10/10 00:05:57;;;;;;;29.73;15.30;;;;;;;13.41;72.64;101204.41;4992207;28;20539;-70
2022/10/10 00:08:23;;;;;;;24.20;12.93;;;;;;;13.13;72.60;101160.97;4991933;28;20492;-71
2022/10/10 00:10:48;;;;;;;25.80;12.25;;;;;;;13.56;72.24;101204.09;4992150;28;20026;-71
2022/10/10 00:13:14;;;;;;;17.35;11.40;;;;;;;13.51;71.52;101188.34;4992074;28;20057;-71
2022/10/10 00:15:39;;;;;;;17.95;10.65;;;;;;;13.32;71.93;101159.94;4992361;28;20022;-71
2022/10/10 00:18:05;;;;;;;19.80;10.90;;;;;;;13.43;71.30;101156.94;4992417;28;20482;-71
2022/10/10 00:20:30;;;;;;;23.63;13.55;;;;;;;13.62;70.38;101200.81;4992107;28;20490;-71
2022/10/10 00:22:56;;;;;;;30.27;16.73;;;;;;;13.73;68.43;101197.81;4991883;28;20034;-71
2022/10/10 00:25:21;;;;;;;32.65;16.40;;;;;;;13.69;68.27;101159.56;4992067;28;20026;-71
2022/10/10 00:27:46;;;;;;;35.38;18.45;;;;;;;13.91;67.97;101191.50;4991805;28;20026;-71
2022/10/10 00:30:12;;;;;;;40.50;19.30;;;;;;;13.91;67.91;101181.09;4992162;28;20026;-71
2022/10/10 00:32:37;;;;;;;39.60;20.25;;;;;;;13.85;67.84;101178.28;4991848;28;20487;-71
2022/10/10 00:35:04;;;;;;;34.33;18.35;;;;;;;13.83;67.71;101178.25;4991848;28;20034;-71
2022/10/10 00:37:30;;;;;;;42.55;21.48;;;;;;;13.91;67.79;101192.34;4992133;28;20038;-71
2022/10/10 00:39:55;;;;;;;35.88;19.42;;;;;;;13.91;67.70;101194.09;4991538;28;20026;-71
2022/10/10 00:42:21;;;;;;;36.72;21.15;;;;;;;13.96;67.51;101197.72;4991990;28;20026;-69
2022/10/10 00:45:24;;;;;;;39.05;20.60;;;;;;;13.64;68.85;101196.59;4991448;28;20487;-70
2022/10/10 00:47:54;;;;;;;25.05;14.30;;;;;;;12.84;70.91;101163.34;4991608;28;20023;-71
2022/10/10 00:50:21;;;;;;;23.67;12.57;;;;;;;12.91;70.91;101163.63;4991604;28;20109;-71
2022/10/10 00:52:47;;;;;;;17.77;10.90;;;;;;;13.21;68.47;101212.28;4991661;28;20030;-71
2022/10/10 00:55:13;;;;;;;17.10;8.27;;;;;;;13.20;67.24;101196.69;4991862;28;20120;-71
2022/10/10 00:57:39;;;;;;;12.55;7.43;;;;;;;13.28;66.56;101215.97;4991527;28;20452;-71
2022/10/10 01:00:05;;;;;;;18.65;6.78;;;;;;;13.27;66.46;101216.81;4991599;28;20037;-71
2022/10/10 01:02:31;;;;;;;10.15;6.50;;;;;;;13.24;65.63;101216.69;4991351;28;20018;-71
2022/10/10 01:04:56;;;;;;;18.30;7.05;;;;;;;12.98;65.39;101180.28;4991426;28;20034;-71
2022/10/10 01:07:26;;;;;;;12.68;5.72;;;;;;;13.11;65.56;101217.94;4991390;28;20026;-71
2022/10/10 01:09:56;;;;;;;11.80;6.22;;;;;;;13.04;66.31;101227.19;4991611;28;20500;-71
2022/10/10 01:12:57;;;;;;;11.15;5.57;;;;;;;12.95;66.77;101222.53;4988597;28;20030;-71
2022/10/10 01:15:47;;;;;;;9.82;6.03;;;;;;;12.91;66.54;101222.31;4995027;28;20034;-72
2022/10/10 01:18:12;;;;;;;13.52;5.88;;;;;;;12.83;66.73;101224.63;4993196;28;20472;-71
2022/10/10 01:20:49;;;;;;;12.93;6.18;;;;;;;12.75;67.42;101237.28;4995412;28;20062;-71
2022/10/10 01:23:30;;;;;;;9.50;5.75;;;;;;;12.74;67.46;101235.50;4994883;28;20037;-71
2022/10/10 01:26:21;;;;;;;10.23;6.15;;;;;;;12.77;67.76;101230.47;4995019;28;20033;-71
2022/10/10 01:29:07;;;;;;;11.38;6.03;;;;;;;12.65;68.41;101218.69;4995079;28;20027;-71
2022/10/10 01:31:38;;;;;;;9.23;6.60;;;;;;;12.72;68.84;101241.44;4994944;28;20453;-71
2022/10/10 01:34:09;;;;;;;14.50;6.80;;;;;;;12.62;69.79;101233.31;4994839;28;20504;-71
2022/10/10 01:36:47;;;;;;;10.35;6.10;;;;;;;12.60;70.04;101236.66;4994853;28;20030;-71
2022/10/10 01:39:25;;;;;;;10.18;6.55;;;;;;;12.54;70.91;101241.59;4994951;28;20023;-69
2022/10/10 01:42:17;;;;;;;10.30;6.28;;;;;;;12.45;71.39;101245.56;4994861;28;20065;-71
2022/10/10 01:44:46;;;;;;;13.20;6.28;;;;;;;12.49;71.80;101259.53;4994420;28;20050;-71
2022/10/10 01:47:12;;;;;;;11.63;6.10;;;;;;;12.41;72.02;101259.22;4994781;28;20030;-71
2022/10/10 01:49:41;;;;;;;11.50;6.57;;;;;;;12.49;72.04;101253.47;4993682;28;20108;-72
2022/10/10 01:52:12;;;;;;;10.80;6.00;;;;;;;12.57;71.55;101254.66;4994337;28;20069;-73
2022/10/10 01:54:56;;;;;;;12.02;5.40;;;;;;;12.62;71.40;101259.22;4994361;28;20272;-74
2022/10/10 01:57:36;;;;;;;13.82;6.22;;;;;;;12.67;70.74;101258.53;4994096;28;20497;-73
2022/10/10 02:00:16;;;;;;;8.85;5.82;;;;;;;12.64;70.38;101267.06;4994281;28;20481;-72
2022/10/10 02:02:56;;;;;;;11.75;7.05;;;;;;;12.53;69.31;101270.91;4994208;28;20113;-72
2022/10/10 02:05:50;;;;;;;15.15;5.82;;;;;;;12.42;70.53;101268.75;4994125;28;20042;-72
2022/10/10 02:08:27;;;;;;;9.50;6.40;;;;;;;12.38;70.64;101266.84;5009214;28;20060;-73
2022/10/10 02:10:57;;;;;;;13.23;6.30;;;;;;;12.27;71.04;101273.25;4994040;28;20046;-72
2022/10/10 02:13:29;;;;;;;18.30;7.30;;;;;;;12.19;71.81;101272.94;4994038;28;20042;-72
2022/10/10 02:15:58;;;;;;;12.95;6.32;;;;;;;12.24;72.16;101273.16;4992646;28;20485;-72
2022/10/10 02:18:27;;;;;;;15.05;6.43;;;;;;;12.19;72.58;101275.53;4993894;28;20034;-72
2022/10/10 02:20:54;;;;;;;9.85;6.35;;;;;;;12.03;72.63;101245.50;4994056;28;20031;-72
2022/10/10 02:23:21;;;;;;;10.40;6.22;;;;;;;12.19;72.88;101283.28;4994064;28;20030;-72
2022/10/10 02:25:52;;;;;;;12.13;6.50;;;;;;;12.07;73.80;101282.75;4992858;28;20549;-72
2022/10/10 02:28:28;;;;;;;13.73;6.65;;;;;;;11.88;74.40;101268.09;4993732;28;20022;-72
2022/10/10 02:30:58;;;;;;;9.50;6.38;;;;;;;11.84;74.33;101255.81;4993935;28;20400;-72
2022/10/10 02:33:32;;;;;;;10.88;6.38;;;;;;;12.12;73.95;101308.03;4993657;28;20046;-72
2022/10/10 02:35:59;;;;;;;10.20;6.18;;;;;;;12.08;73.39;101305.25;4993937;28;20505;-72
2022/10/10 02:38:26;;;;;;;11.52;6.75;;;;;;;12.00;73.92;101298.81;4993482;28;20066;-72
2022/10/10 02:40:53;;;;;;;8.15;6.32;;;;;;;11.92;74.38;101306.22;4993346;28;20110;-72
2022/10/10 02:43:19;;;;;;;10.75;6.63;;;;;;;11.92;74.48;101314.84;4993299;28;20042;-73
2022/10/10 02:45:45;;;;;;;16.45;6.78;;;;;;;11.81;74.99;101310.91;4993440;28;20046;-73
2022/10/10 02:48:10;;;;;;;14.77;6.55;;;;;;;11.68;74.85;101303.41;4993397;28;20031;-73
2022/10/10 02:50:37;;;;;;;12.65;6.72;;;;;;;11.43;76.09;101295.41;4993357;28;20041;-73
2022/10/10 02:53:02;;;;;;;10.40;6.65;;;;;;;11.44;76.68;101315.28;4993202;28;20548;-73
2022/10/10 02:55:27;;;;;;;13.85;6.80;;;;;;;11.33;76.77;101299.25;4992543;28;20034;-72
2022/10/10 02:57:53;;;;;;;10.43;6.93;;;;;;;11.44;76.96;101333.38;4973511;28;20077;-73
2022/10/10 03:00:18;;;;;;;14.80;6.75;;;;;;;11.49;76.56;101324.13;4974629;28;20037;-71
2022/10/10 03:02:45;;;;;;;11.93;7.40;;;;;;;11.53;76.11;101326.88;4992930;28;20036;-75
2022/10/10 03:05:11;;;;;;;10.27;7.60;;;;;;;11.48;75.86;101330.09;4991928;28;20049;-72
2022/10/10 03:07:36;;;;;;;20.13;8.30;;;;;;;11.33;76.27;101334.56;4973458;28;20065;-70
2022/10/10 03:10:03;;;;;;;12.88;7.50;;;;;;;11.33;76.40;101329.41;4973694;28;20114;-70
2022/10/10 03:12:29;;;;;;;14.07;8.23;;;;;;;11.19;76.60;101325.25;4981460;28;20031;-71
2022/10/10 03:14:54;;;;;;;12.82;8.00;;;;;;;11.07;77.22;101339.34;4983425;28;20033;-71
2022/10/10 03:17:19;;;;;;;17.45;8.57;;;;;;;11.03;77.62;101350.34;4991248;28;20084;-69
2022/10/10 03:19:45;;;;;;;15.93;8.35;;;;;;;10.95;78.17;101360.31;4991970;28;20472;-69
2022/10/10 03:22:10;;;;;;;18.08;7.80;;;;;;;11.10;77.69;101351.53;4992326;28;20030;-69
2022/10/10 03:24:36;;;;;;;21.00;8.57;;;;;;;11.01;77.34;101346.81;4992255;28;20050;-69
2022/10/10 03:27:01;;;;;;;15.35;8.63;;;;;;;11.08;77.49;101355.72;4992350;28;20408;-69
2022/10/10 03:29:26;;;;;;;12.73;8.90;;;;;;;11.21;76.94;101359.81;4992433;28;20061;-69
2022/10/10 03:31:52;;;;;;;14.77;8.55;;;;;;;11.21;76.98;101358.09;4992426;28;20489;-69
2022/10/10 03:34:17;;;;;;;12.82;8.55;;;;;;;11.25;76.51;101347.13;4992105;28;20386;-69
2022/10/10 03:36:43;;;;;;;18.40;9.43;;;;;;;11.22;76.14;101352.13;4990727;28;20520;-67
2022/10/10 03:39:08;;;;;;;34.22;10.63;;;;;;;11.13;76.24;101351.69;4991336;28;20100;-70
2022/10/10 03:41:34;;;;;;;21.75;9.00;;;;;;;11.07;76.46;101349.69;4990891;28;20047;-69
2022/10/10 03:44:00;;;;;;;20.38;10.10;;;;;;;10.95;77.25;101352.56;4991926;28;20033;-69
2022/10/10 03:46:26;;;;;;;16.10;8.85;;;;;;;10.85;77.71;101350.31;4989396;28;20055;-68
2022/10/10 03:48:51;;;;;;;20.75;10.18;;;;;;;10.68;78.32;101334.88;4990954;28;20030;-69
2022/10/10 03:51:17;;;;;;;13.90;8.73;;;;;;;10.67;78.63;101340.84;4991266;28;20033;-70
2022/10/10 03:53:42;;;;;;;16.70;8.98;;;;;;;10.65;79.14;101352.81;5006377;28;20030;-69
2022/10/10 03:56:08;;;;;;;18.13;9.07;;;;;;;10.61;79.40;101355.16;4990660;28;20034;-68
2022/10/10 03:58:33;;;;;;;23.25;10.45;;;;;;;10.51;79.60;101357.25;4990972;28;20034;-69
2022/10/10 04:01:01;;;;;;;19.10;9.30;;;;;;;10.38;79.66;101330.72;4990857;28;20556;-70
2022/10/10 04:03:27;;;;;;;17.95;9.18;;;;;;;10.48;80.06;101364.84;4990870;28;20386;-69
2022/10/10 04:05:53;;;;;;;16.98;9.73;;;;;;;10.60;79.40;101374.91;5006032;28;20468;-70
2022/10/10 04:08:18;;;;;;;26.60;10.15;;;;;;;10.53;79.63;101370.25;4991358;28;20121;-70
2022/10/10 04:10:48;;;;;;;27.13;10.10;;;;;;;10.47;79.60;101372.50;4991852;28;20386;-70
2022/10/10 04:13:13;;;;;;;38.65;10.80;;;;;;;10.30;79.47;101330.28;4991826;28;20061;-70
2022/10/10 04:15:39;;;;;;;23.88;10.30;;;;;;;10.64;78.66;101378.53;4991978;28;20093;-70
2022/10/10 04:18:04;;;;;;;18.52;10.65;;;;;;;10.14;78.92;101297.63;4990891;28;20081;-70
2022/10/10 04:20:30;;;;;;;22.42;10.52;;;;;;;10.55;78.79;101371.19;4989685;28;20034;-70
2022/10/10 04:22:56;;;;;;;22.65;10.25;;;;;;;10.68;78.79;101381.34;4991561;28;20030;-69
2022/10/10 04:25:21;;;;;;;19.40;10.65;;;;;;;10.75;77.96;101379.09;4991398;28;20031;-70
2022/10/10 04:27:46;;;;;;;20.98;10.23;;;;;;;10.83;77.54;101381.25;4990754;28;20038;-68
2022/10/10 04:30:14;;;;;;;26.13;10.77;;;;;;;10.78;77.34;101368.91;4991665;28;20034;-70
2022/10/10 04:32:39;;;;;;;21.55;10.35;;;;;;;10.60;78.21;101379.19;4990737;28;20038;-69
2022/10/10 04:35:05;;;;;;;23.50;9.70;;;;;;;10.53;78.33;101380.59;4991411;28;20049;-67
2022/10/10 04:37:31;;;;;;;25.98;10.52;;;;;;;10.46;78.66;101381.94;4989969;28;20048;-70
2022/10/10 04:39:57;;;;;;;21.08;9.93;;;;;;;10.52;78.82;101389.13;4989724;28;20038;-68
2022/10/10 04:42:22;;;;;;;26.17;10.15;;;;;;;10.54;78.65;101376.28;4990224;28;20096;-69
2022/10/10 04:44:48;;;;;;;22.27;9.90;;;;;;;10.60;78.41;101390.38;4990661;28;20050;-69
2022/10/10 04:47:14;;;;;;;18.92;9.73;;;;;;;10.55;78.48;101390.97;4988351;28;20540;-67
2022/10/10 04:49:40;;;;;;;22.27;10.15;;;;;;;10.45;78.04;101380.16;4983449;28;20042;-68
2022/10/10 04:52:10;;;;;;;26.35;11.02;;;;;;;10.38;78.79;101388.41;4991300;28;20038;-70
2022/10/10 04:54:36;;;;;;;16.83;9.43;;;;;;;10.41;78.63;101396.31;4990731;28;20027;-68
2022/10/10 04:57:01;;;;;;;20.63;9.80;;;;;;;10.26;78.92;101386.03;4976562;28;20037;-71
2022/10/10 04:59:27;;;;;;;19.90;9.52;;;;;;;10.22;79.18;101383.19;4991184;28;20031;-69
2022/10/10 05:01:52;;;;;;;15.23;8.50;;;;;;;10.14;79.98;101386.28;4972074;28;20050;-70
2022/10/10 05:04:17;;;;;;;17.15;8.93;;;;;;;10.20;80.83;101402.09;4971535;28;20409;-70
2022/10/10 05:06:43;;;;;;;15.18;9.02;;;;;;;10.23;81.75;101403.03;4971597;28;20101;-67
2022/10/10 05:09:08;;;;;;;16.38;9.00;;;;;;;10.00;82.57;101370.03;4977153;28;20460;-67
2022/10/10 05:11:34;;;;;;;19.27;9.48;;;;;;;10.24;83.34;101409.97;4990964;28;20174;-70
2022/10/10 05:13:59;;;;;;;21.33;9.25;;;;;;;10.29;84.30;101418.84;4991118;28;20037;-71
2022/10/10 05:16:25;;;;;;;19.55;9.38;;;;;;;10.02;85.11;101367.56;4990945;28;20057;-70
2022/10/10 05:18:50;;;;;;;15.90;9.23;;;;;;;10.12;84.95;101380.13;4990944;28;20031;-67
2022/10/10 05:21:16;;;;;;;17.50;9.02;;;;;;;10.36;84.46;101421.00;4990833;28;20026;-67
2022/10/10 05:23:41;;;;;;;15.18;8.70;;;;;;;10.38;84.01;101421.97;4990884;28;20085;-70
2022/10/10 05:26:08;;;;;;;22.45;10.88;;;;;;;10.47;83.77;101418.97;4991028;28;20041;-70
2022/10/10 05:28:35;;;;;;;21.38;10.43;;;;;;;10.47;83.63;101416.41;4989839;28;20039;-72
2022/10/10 05:31:01;;;;;;;16.92;9.77;;;;;;;10.42;84.23;101389.44;4989553;28;20034;-69
2022/10/10 05:33:26;;;;;;;19.80;10.50;;;;;;;10.74;84.65;101435.03;4989773;28;20034;-69
2022/10/10 05:35:52;;;;;;;17.58;10.05;;;;;;;10.87;84.79;101430.50;4989757;28;20037;-71
2022/10/10 05:38:18;;;;;;;17.70;9.35;;;;;;;10.81;85.30;101400.06;4989580;28;20030;-74
2022/10/10 05:40:43;;;;;;;17.23;8.95;;;;;;;11.10;85.70;101435.13;5003455;28;20038;-71
2022/10/10 05:43:09;;;;;;;22.30;9.90;;;;;;;11.22;85.05;101439.16;4989767;28;20477;-72
2022/10/10 05:45:35;;;;;;;18.83;9.65;;;;;;;11.28;85.05;101423.94;5004952;28;20058;-68
2022/10/10 05:48:00;;;;;;;12.73;9.48;;;;;;;11.52;84.55;101431.13;4990250;28;20022;-73
2022/10/10 05:50:32;;;;;;;19.05;10.63;;;;;;;11.57;84.18;101433.09;4990014;28;20065;-75
2022/10/10 05:52:58;;;;;;;14.20;8.95;;;;;;;11.75;83.91;101422.75;4990365;28;20022;-75
2022/10/10 05:55:24;;;;;;;16.77;9.48;;;;;;;11.90;83.88;101434.63;4989801;28;20037;-73
2022/10/10 05:57:49;;;;;;;16.60;9.40;;;;;;;11.88;84.17;101420.75;4989853;28;20670;-72
2022/10/10 06:00:15;;;;;;;15.38;9.43;;;;;;;12.01;84.80;101435.19;4989802;28;20104;-73
2022/10/10 06:02:40;;;;;;;16.30;8.73;;;;;;;12.05;85.38;101425.03;4993151;28;20111;-73
2022/10/10 06:05:07;;;;;;;16.38;9.95;;;;;;;12.23;85.70;101429.28;4993431;28;20034;-72
2022/10/10 06:07:33;;;;;;;19.42;9.10;;;;;;;12.40;86.15;101430.03;5006962;28;20496;-70
2022/10/10 06:09:58;;;;;;;23.80;9.27;;;;;;;12.56;85.26;101432.50;4993566;28;20113;-72
2022/10/10 06:12:25;;;;;;;23.02;9.85;;;;;;;12.78;85.26;101436.03;4993361;28;20084;-71
2022/10/10 06:14:50;;;;;;;23.10;10.82;;;;;;;12.93;85.25;101431.53;4992665;28;21034;-71
2022/10/10 06:17:16;;;;;;;20.88;10.23;;;;;;;12.94;85.24;101403.91;4993559;28;20117;-70
2022/10/10 06:19:41;;;;;;;19.20;10.40;;;;;;;13.11;85.06;101407.22;4993682;28;20030;-73
2022/10/10 06:22:07;;;;;;;20.60;9.95;;;;;;;13.55;84.83;101433.22;4992502;28;20382;-70
2022/10/10 06:24:33;;;;;;;18.10;10.23;;;;;;;13.77;84.04;101431.47;4992762;28;20022;-71
2022/10/10 06:26:58;;;;;;;19.08;10.52;;;;;;;13.91;83.53;101430.31;4992982;28;20030;-72
2022/10/10 06:29:24;;;;;;;22.05;10.32;;;;;;;14.16;82.21;101436.44;4991727;28;20027;-71
2022/10/10 06:31:49;;;;;;;28.98;11.40;;;;;;;14.33;82.15;101443.16;4992773;28;20030;-73
2022/10/10 06:34:15;;;;;;;24.15;10.18;;;;;;;14.48;81.30;101453.22;4992945;28;20092;-74
2022/10/10 06:36:40;;;;;;;30.55;10.98;;;;;;;14.62;80.86;101452.84;4991844;28;20080;-74
2022/10/10 06:39:05;;;;;;;25.52;10.63;;;;;;;14.82;80.91;101446.66;4992956;28;20025;-72
2022/10/10 06:41:31;;;;;;;34.90;11.15;;;;;;;14.96;79.72;101449.72;4992922;28;20035;-74
2022/10/10 06:43:56;;;;;;;29.00;11.60;;;;;;;15.11;79.74;101457.19;4992627;28;20401;-71
2022/10/10 06:46:22;;;;;;;39.83;12.95;;;;;;;15.20;78.81;101444.50;5022667;28;20054;-74
2022/10/10 06:48:49;;;;;;;29.08;11.02;;;;;;;15.34;79.66;101446.69;4991501;28;20030;-74
2022/10/10 06:51:15;;;;;;;44.17;13.40;;;;;;;15.50;78.42;101459.34;4992465;28;20532;-74
2022/10/10 06:53:42;;;;;;;28.52;12.10;;;;;;;15.58;77.68;101461.34;4992187;28;20023;-74
2022/10/10 06:56:16;;;;;;;26.80;11.35;;;;;;;15.81;77.78;101462.94;4992796;28;20022;-74
2022/10/10 06:58:43;;;;;;;25.20;12.18;;;;;;;16.02;76.74;101464.47;4992502;28;20022;-74
2022/10/10 07:01:09;;;;;;;26.83;12.25;;;;;;;16.10;76.61;101467.31;4992016;28;20022;-73
2022/10/10 07:03:34;;;;;;;19.25;11.32;;;;;;;16.21;75.95;101467.63;4992161;28;20030;-74
2022/10/10 07:06:01;;;;;;;27.80;11.88;;;;;;;16.33;75.80;101466.25;4992385;28;20084;-73
2022/10/10 07:08:28;;;;;;;22.63;11.27;;;;;;;16.47;75.40;101463.19;4992416;28;20124;-73
2022/10/10 07:10:55;;;;;;;31.70;14.38;;;;;;;16.60;73.56;101456.59;4991870;28;20031;-74
2022/10/10 07:13:21;;;;;;;36.90;13.98;;;;;;;16.70;73.47;101461.22;4991774;28;20026;-73
2022/10/10 07:15:47;;;;;;;26.02;11.88;;;;;;;16.88;72.82;101460.84;4992257;28;20028;-72
2022/10/10 07:18:12;;;;;;;29.10;12.50;;;;;;;17.03;72.41;101457.78;4992139;28;20507;-74
2022/10/10 07:20:39;;;;;;;52.75;20.00;;;;;;;17.18;72.44;101461.66;4991981;28;20397;-72
2022/10/10 07:23:05;;;;;;;37.75;16.30;;;;;;;17.11;72.29;101437.13;4989608;28;20034;-73
2022/10/10 07:25:30;;;;;;;25.05;12.65;;;;;;;17.42;70.17;101458.75;4992082;28;20033;-74
2022/10/10 07:27:56;;;;;;;29.13;11.35;;;;;;;17.57;69.14;101459.16;4992398;28;20038;-71
2022/10/10 07:30:23;;;;;;;53.50;14.93;;;;;;;17.75;69.63;101449.97;4991485;28;20023;-74
2022/10/10 07:32:49;;;;;;;34.50;12.05;;;;;;;17.83;68.64;101448.44;4991324;28;20041;-73
2022/10/10 07:35:14;;;;;;;16.98;9.82;;;;;;;17.98;68.80;101454.88;4991676;28;20022;-69
2022/10/10 07:37:40;;;;;;;21.85;10.35;;;;;;;18.02;68.33;101446.25;4991597;28;20061;-68
2022/10/10 07:40:07;;;;;;;22.13;9.90;;;;;;;18.13;68.70;101449.09;4991001;28;20038;-71
2022/10/10 07:42:33;;;;;;;14.25;9.48;;;;;;;18.08;68.23;101451.59;4991795;28;20038;-68
2022/10/10 07:44:59;;;;;;;23.05;9.45;;;;;;;18.06;68.31;101438.50;4992000;28;20051;-71
2022/10/10 07:47:24;;;;;;;13.93;9.27;;;;;;;18.16;68.78;101443.94;4992185;28;20056;-71
2022/10/10 07:49:50;;;;;;;14.30;9.48;;;;;;;18.27;69.63;101451.16;4993421;28;20058;-73
2022/10/10 07:52:15;;;;;;;31.35;12.90;;;;;;;18.39;68.97;101442.69;4990819;28;20049;-72
2022/10/10 07:54:41;;;;;;;14.65;9.52;;;;;;;18.50;67.91;101447.25;4991840;28;20101;-68
2022/10/10 07:57:06;;;;;;;12.25;8.65;;;;;;;18.49;67.24;101440.25;4977715;28;20041;-73
2022/10/10 07:59:32;;;;;;;22.45;10.82;;;;;;;18.66;66.38;101445.81;4991705;28;20101;-75
2022/10/10 08:01:57;;;;;;;21.33;10.48;;;;;;;18.76;66.77;101443.38;4991231;28;20092;-71
2022/10/10 08:04:23;;;;;;;19.15;9.82;;;;;;;18.67;65.73;101413.59;4991525;28;20065;-72
2022/10/10 08:06:48;;;;;;;12.52;8.38;;;;;;;18.93;64.39;101435.03;4990591;28;20034;-72
2022/10/10 08:09:14;;;;;;;15.18;8.65;;;;;;;19.06;64.78;101436.97;4990817;28;20400;-72
2022/10/10 08:11:39;;;;;;;13.45;9.05;;;;;;;19.10;64.19;101437.91;4990516;28;20445;-72
2022/10/10 08:14:05;;;;;;;11.00;8.80;;;;;;;19.28;63.57;101437.38;4990510;28;20544;-72
2022/10/10 08:16:30;;;;;;;17.10;8.98;;;;;;;19.36;63.32;101429.63;4990697;28;20405;-71
2022/10/10 08:18:56;;;;;;;13.75;8.27;;;;;;;19.41;63.47;101438.44;4989599;28;20027;-74
2022/10/10 08:21:22;;;;;;;17.58;8.43;;;;;;;19.48;63.14;101437.69;5004856;28;20417;-74
2022/10/10 08:23:48;;;;;;;16.67;8.10;;;;;;;19.41;63.38;101407.00;4989902;28;20106;-70
2022/10/10 08:26:15;;;;;;;14.55;9.48;;;;;;;19.52;62.33;101426.38;4990534;28;20041;-73
2022/10/10 08:28:41;;;;;;;14.23;8.98;;;;;;;19.51;62.55;101422.00;4990395;28;20110;-70
2022/10/10 08:31:13;;;;;;;28.15;9.45;;;;;;;19.63;63.11;101420.44;4989977;28;20109;-70
2022/10/10 08:33:40;;;;;;;19.27;9.35;;;;;;;19.74;62.67;101421.50;4990740;28;20485;-69
2022/10/10 08:36:07;;;;;;;13.35;7.97;;;;;;;19.68;61.22;101405.69;4990420;28;20026;-71
2022/10/10 08:38:33;;;;;;;14.63;9.02;;;;;;;19.80;62.29;101432.06;4990781;28;20030;-69
2022/10/10 08:41:05;;;;;;;21.73;8.77;;;;;;;19.84;62.25;101439.13;4990544;28;20097;-67
2022/10/10 08:43:47;;;;;;;16.73;9.52;;;;;;;19.93;61.31;101438.38;4990619;28;20489;-69
2022/10/10 08:46:39;;;;;;;16.70;8.05;;;;;;;20.03;60.91;101428.91;4990392;28;20046;-70
2022/10/10 08:49:21;;;;;;;20.80;8.63;;;;;;;20.18;60.42;101434.31;4990509;28;20101;-69
2022/10/10 08:51:54;;;;;;;12.15;7.70;;;;;;;20.27;59.82;101423.06;4990508;28;20057;-67
2022/10/10 08:54:22;;;;;;;16.40;8.35;;;;;;;20.39;59.16;101422.34;4991015;28;20029;-66
2022/10/10 08:56:49;;;;;;;14.05;8.07;;;;;;;20.55;59.03;101438.25;4988268;28;20041;-68
2022/10/10 08:59:23;;;;;;;14.27;7.88;;;;;;;20.49;57.38;101400.59;4990463;28;20053;-68
2022/10/10 09:01:53;;;;;;;17.58;8.60;;;;;;;20.77;59.14;101431.53;4990896;28;20042;-71
2022/10/10 09:04:19;;;;;;;14.63;7.90;;;;;;;20.87;58.79;101441.25;5006066;28;20026;-69
2022/10/10 09:06:44;;;;;;;17.95;8.57;;;;;;;20.91;56.77;101431.66;4991249;28;20386;-68
2022/10/10 09:09:21;;;;;;;16.60;8.65;;;;;;;21.05;57.10;101435.31;4991363;28;20030;-69
2022/10/10 09:12:04;;;;;;;15.68;8.32;;;;;;;21.16;57.35;101438.91;4991226;28;20485;-68
2022/10/10 09:14:53;;;;;;;15.00;8.57;;;;;;;21.21;55.77;101431.06;4991195;28;20034;-72
2022/10/10 09:17:37;;;;;;;11.07;8.20;;;;;;;21.31;56.54;101426.78;4991392;28;20034;-73
2022/10/10 09:20:09;;;;;;;10.45;8.02;;;;;;;21.45;56.49;101430.38;4990974;28;20429;-71
2022/10/10 09:22:59;;;;;;;20.73;8.32;;;;;;;21.49;55.71;101407.63;4991071;28;20065;-71
2022/10/10 09:26:02;;;;;;;14.45;7.13;;;;;;;21.74;53.30;101421.81;4990866;28;20041;-70
2022/10/10 09:28:49;;;;;;;13.48;7.20;;;;;;;21.80;53.67;101421.00;4990981;28;20042;-70
2022/10/10 09:31:22;;;;;;;13.80;6.82;;;;;;;21.84;53.84;101419.28;4991001;28;20084;-68
2022/10/10 09:34:01;;;;;;;14.60;7.57;;;;;;;21.93;52.16;101416.69;4991361;28;20038;-70
2022/10/10 09:36:32;;;;;;;16.05;8.07;;;;;;;22.02;52.48;101419.38;4994819;28;20480;-71
2022/10/10 09:39:03;;;;;;;16.98;8.45;;;;;;;22.09;53.75;101415.00;4994719;28;20096;-69
2022/10/10 09:41:58;;;;;;;20.48;9.60;;;;;;;22.05;54.25;101418.50;4994674;28;20485;-69
2022/10/10 09:44:24;;;;;;;13.88;7.57;;;;;;;22.18;52.50;101414.16;4994711;28;20081;-71
2022/10/10 09:46:50;;;;;;;13.65;7.25;;;;;;;22.34;53.74;101412.47;4994713;28;20468;-69
2022/10/10 09:49:18;;;;;;;16.55;6.35;;;;;;;22.48;50.98;101416.06;5008790;28;20066;-70
2022/10/10 09:51:45;;;;;;;14.32;7.70;;;;;;;22.50;51.69;101411.66;4994655;28;20030;-71
2022/10/10 09:54:13;;;;;;;19.50;8.10;;;;;;;22.66;51.81;101406.47;4994189;28;20045;-70
2022/10/10 09:56:50;;;;;;;25.90;9.52;;;;;;;22.80;50.04;101399.44;4986409;28;20026;-72
2022/10/10 09:59:39;;;;;;;25.42;9.13;;;;;;;22.88;49.16;101402.97;4985521;28;20112;-72
2022/10/10 10:02:23;;;;;;;21.27;7.43;;;;;;;22.91;48.55;101394.19;4983025;28;20038;-72
2022/10/10 10:04:51;;;;;;;12.60;6.47;;;;;;;22.97;49.27;101399.47;4984784;28;20030;-71
2022/10/10 10:07:31;;;;;;;13.05;6.63;;;;;;;23.07;48.69;101390.66;4984563;28;20027;-69
2022/10/10 10:10:00;;;;;;;15.30;7.20;;;;;;;23.16;48.12;101384.56;4984297;28;20025;-69
2022/10/10 10:12:44;;;;;;;9.25;6.15;;;;;;;23.22;47.74;101374.00;5014505;28;20034;-70
2022/10/10 10:15:19;;;;;;;23.00;8.45;;;;;;;23.25;48.99;101360.84;4985040;28;20120;-72
2022/10/10 10:17:45;;;;;;;37.97;12.93;;;;;;;23.33;46.39;101365.22;4985012;28;20022;-69
2022/10/10 10:20:36;;;;;;;16.15;8.35;;;;;;;23.41;46.57;101369.63;4984839;28;20092;-71
2022/10/10 10:23:01;;;;;;;11.70;6.53;;;;;;;23.45;47.64;101369.59;4934182;29;20129;-71
2022/10/10 10:25:37;;;;;;;12.43;6.82;;;;;;;23.19;47.03;101309.91;4944210;29;20466;-70
2022/10/10 10:28:11;;;;;;;14.00;6.65;;;;;;;23.67;46.83;101368.66;4945749;29;20035;-72
2022/10/10 10:30:41;;;;;;;12.13;6.43;;;;;;;23.82;45.35;101369.50;4943471;28;20118;-69
2022/10/10 10:33:15;;;;;;;9.77;6.40;;;;;;;23.95;43.62;101358.06;4943066;29;20031;-70
2022/10/10 10:36:33;;;;;;;10.98;6.78;;;;;;;23.93;45.75;101362.44;4946164;28;20032;-69
2022/10/10 10:39:55;;;;;;;9.43;6.07;;;;;;;24.00;44.26;101355.38;4911553;29;20048;-70
2022/10/10 10:42:39;;;;;;;11.40;6.90;;;;;;;23.97;45.55;101348.34;4892679;29;20161;-69
2022/10/10 10:45:07;;;;;;;11.18;6.00;;;;;;;23.89;45.21;101316.72;4893136;29;20059;-67
2022/10/10 10:48:05;;;;;;;13.70;6.70;;;;;;;24.20;44.44;101347.34;4894639;29;20045;-70
2022/10/10 10:50:30;;;;;;;13.68;6.45;;;;;;;24.26;44.13;101343.81;4857300;29;20077;-72
2022/10/10 10:53:15;;;;;;;8.70;5.95;;;;;;;24.37;43.16;101337.59;4857423;29;20111;-71
2022/10/10 10:55:58;;;;;;;13.02;6.78;;;;;;;24.45;43.61;101334.91;4857083;29;20037;-70
2022/10/10 10:58:33;;;;;;;14.90;8.10;;;;;;;24.51;42.76;101328.69;4856141;29;20559;-72
2022/10/10 11:01:03;;;;;;;12.27;6.10;;;;;;;24.47;44.35;101332.25;4822454;29;20099;-73
2022/10/10 11:03:31;;;;;;;10.82;6.20;;;;;;;24.58;43.61;101330.41;4820491;29;20053;-73
2022/10/10 11:06:16;;;;;;;9.65;6.15;;;;;;;24.68;41.58;101325.97;4820670;29;20043;-69
2022/10/10 11:09:19;;;;;;;10.48;6.40;;;;;;;24.21;42.40;101320.09;4818720;29;20143;-71
2022/10/10 11:12:05;;;;;;;10.57;5.97;;;;;;;23.66;43.70;101316.81;4835245;29;20042;-71
2022/10/10 11:15:15;;;;;;;12.70;8.18;;;;;;;23.54;43.99;101308.94;4837665;29;20057;-72
2022/10/10 11:18:07;;;;;;;16.65;7.93;;;;;;;23.71;44.21;101306.25;4854826;29;20037;-71
2022/10/10 11:20:40;;;;;;;10.35;6.13;;;;;;;23.91;43.81;101300.88;4820344;29;20632;-69
2022/10/10 11:23:11;;;;;;;10.48;6.72;;;;;;;23.87;43.72;101300.00;4818958;29;20129;-69
2022/10/10 11:25:51;;;;;;;11.98;6.35;;;;;;;24.05;44.97;101307.00;4822514;29;20042;-69
2022/10/10 11:28:32;;;;;;;12.95;7.88;;;;;;;24.13;44.95;101284.97;4838527;29;20046;-71